Time;durP1;ratioP1;P1;durP2;ratioP2;P2;SDS_P1;SDS_P2;PMS_P1;PMS_P2;Temp;Humidity;BMP_temperature;BMP_pressure;BME280_temperature;BME280_humidity;BME280_pressure;Samples;Min_cycle;Max_cycle;Signal;HPM_P1;HPM_P2
2022/05/14 00:01:10;;;;;;;3.75;2.40;;;;;;;;;;4929072;29;20708;-77
2022/05/14 00:03:39;;;;;;;2.37;2.17;;;;;;;;;;4946078;29;20181;-77
2022/05/14 00:06:07;;;;;;;5.25;1.80;;;;;;;;;;4944889;29;20941;-77
2022/05/14 00:08:33;;;;;;;3.30;2.25;;;;;;;;;;4928535;29;20203;-77
2022/05/14 00:14:03;;;;;;;4.25;2.30;;;;;;;;;;4943746;29;20236;-77
2022/05/14 00:16:29;;;;;;;2.58;1.90;;;;;;;;;;4943429;29;20219;-77
2022/05/14 00:18:55;;;;;;;2.78;2.47;;;;;;;;;;4944002;29;20307;-77
2022/05/14 00:21:22;;;;;;;2.70;1.67;;;;;;;;;;4943326;29;20808;-77
2022/05/14 00:23:48;;;;;;;2.53;1.83;;;;;;;;;;4943523;29;20480;-77
2022/05/14 00:26:14;;;;;;;3.20;2.17;;;;;;;;;;4943158;29;20232;-77
2022/05/14 00:28:40;;;;;;;2.30;2.10;;;;;;;;;;4924889;29;20225;-77
2022/05/14 00:31:06;;;;;;;2.67;1.85;;;;;;;;;;4928337;29;20177;-77
2022/05/14 00:33:33;;;;;;;2.88;1.60;;;;;;;;;;4927219;29;20169;-77
2022/05/14 00:35:59;;;;;;;2.70;2.22;;;;;;;;;;4924310;29;20272;-77
2022/05/14 00:38:25;;;;;;;3.38;1.60;;;;;;;;;;4924652;29;20245;-77
2022/05/14 00:40:56;;;;;;;2.80;1.65;;;;;;;;;;4943912;29;20193;-77
2022/05/14 00:43:22;;;;;;;2.50;2.10;;;;;;;;;;4942971;29;20197;-77
2022/05/14 00:45:52;;;;;;;3.08;2.50;;;;;;;;;;4939087;29;20249;-77
2022/05/14 00:48:18;;;;;;;2.97;2.75;;;;;;;;;;4926467;29;20205;-77
2022/05/14 00:50:47;;;;;;;4.18;2.00;;;;;;;;;;4945455;29;20403;-77
2022/05/14 00:53:17;;;;;;;6.10;2.22;;;;;;;;;;4945840;29;20189;-77
2022/05/14 00:55:45;;;;;;;2.08;1.90;;;;;;;;;;4945333;29;20216;-77
2022/05/14 00:58:13;;;;;;;2.20;1.98;;;;;;;;;;4944391;29;20192;-77
2022/05/14 01:00:39;;;;;;;2.75;2.25;;;;;;;;;;4946441;29;20185;-77
2022/05/14 01:03:05;;;;;;;3.80;2.20;;;;;;;;;;4944786;29;20192;-77
2022/05/14 01:05:31;;;;;;;3.90;2.10;;;;;;;;;;4927748;29;20232;-77
2022/05/14 01:08:01;;;;;;;5.05;1.90;;;;;;;;;;4928361;29;20271;-77
2022/05/14 01:10:27;;;;;;;2.88;2.47;;;;;;;;;;4928078;29;20225;-77
2022/05/14 01:12:58;;;;;;;2.03;1.73;;;;;;;;;;4946166;29;20189;-77
2022/05/14 01:15:25;;;;;;;2.22;1.67;;;;;;;;;;4927903;29;20205;-77
2022/05/14 01:17:52;;;;;;;2.58;1.90;;;;;;;;;;4944364;29;20193;-77
2022/05/14 01:20:19;;;;;;;2.50;1.73;;;;;;;;;;4945391;29;20674;-77
2022/05/14 01:22:51;;;;;;;4.78;2.42;;;;;;;;;;4948122;29;20220;-77
2022/05/14 01:28:02;;;;;;;4.72;2.50;;;;;;;;;;4945978;29;20435;-77
2022/05/14 01:30:28;;;;;;;2.95;2.17;;;;;;;;;;4946563;29;20241;-77
2022/05/14 01:33:07;;;;;;;4.93;2.10;;;;;;;;;;4948592;29;20181;-77
2022/05/14 01:35:34;;;;;;;2.03;1.85;;;;;;;;;;4931152;29;20205;-77
2022/05/14 01:38:01;;;;;;;3.92;2.40;;;;;;;;;;4948046;29;20181;-77
2022/05/14 01:40:27;;;;;;;2.13;1.92;;;;;;;;;;4948890;29;20184;-77
2022/05/14 01:42:53;;;;;;;2.55;2.35;;;;;;;;;;4932587;29;20177;-77
2022/05/14 01:45:19;;;;;;;2.47;2.27;;;;;;;;;;4948301;29;20514;-77
2022/05/14 01:47:45;;;;;;;2.70;2.20;;;;;;;;;;4944049;29;20498;-77
2022/05/14 01:50:11;;;;;;;2.95;1.60;;;;;;;;;;4938814;29;20444;-77
2022/05/14 01:52:37;;;;;;;3.88;1.90;;;;;;;;;;4931484;29;20201;-77
2022/05/14 01:55:03;;;;;;;2.13;1.80;;;;;;;;;;4948845;29;20569;-77
2022/05/14 01:57:29;;;;;;;2.80;1.85;;;;;;;;;;4948422;29;20570;-77
2022/05/14 01:59:55;;;;;;;2.00;1.60;;;;;;;;;;4948079;29;20181;-77
2022/05/14 02:02:21;;;;;;;4.18;1.70;;;;;;;;;;4948186;29;20181;-77
2022/05/14 02:04:47;;;;;;;3.60;2.00;;;;;;;;;;4947914;29;20562;-77
2022/05/14 02:07:13;;;;;;;2.22;1.73;;;;;;;;;;4948701;29;20448;-77
2022/05/14 02:09:39;;;;;;;2.80;2.10;;;;;;;;;;4949010;29;20185;-77
2022/05/14 02:12:06;;;;;;;2.38;1.90;;;;;;;;;;4930902;29;20571;-77
2022/05/14 02:14:32;;;;;;;2.80;1.67;;;;;;;;;;4947431;29;20250;-77
2022/05/14 02:16:58;;;;;;;2.40;1.90;;;;;;;;;;4947604;29;20185;-77
2022/05/14 02:19:24;;;;;;;2.00;1.80;;;;;;;;;;4945316;29;20224;-77
2022/05/14 02:21:50;;;;;;;2.25;1.60;;;;;;;;;;4948142;29;20489;-77
2022/05/14 02:24:17;;;;;;;3.20;1.77;;;;;;;;;;4948360;29;20192;-77
2022/05/14 02:26:43;;;;;;;5.55;2.10;;;;;;;;;;4947419;29;20682;-77
2022/05/14 02:29:09;;;;;;;2.10;1.67;;;;;;;;;;4929891;29;20243;-77
2022/05/14 02:31:35;;;;;;;4.70;1.90;;;;;;;;;;4947531;29;20192;-77
2022/05/14 02:34:01;;;;;;;3.05;2.10;;;;;;;;;;4944498;29;20197;-77
2022/05/14 02:36:28;;;;;;;2.20;1.70;;;;;;;;;;4947023;29;20253;-77
2022/05/14 02:38:54;;;;;;;3.60;2.10;;;;;;;;;;4930872;29;20185;-77
2022/05/14 02:41:20;;;;;;;3.38;2.45;;;;;;;;;;4947180;29;20181;-77
2022/05/14 02:43:46;;;;;;;4.90;2.10;;;;;;;;;;4930482;29;20197;-78
2022/05/14 02:46:12;;;;;;;5.20;1.88;;;;;;;;;;4947762;29;20413;-77
2022/05/14 02:48:38;;;;;;;4.10;2.25;;;;;;;;;;4927928;29;20596;-77
2022/05/14 02:51:04;;;;;;;3.88;1.80;;;;;;;;;;4945692;29;20484;-77
2022/05/14 02:53:31;;;;;;;1.95;1.80;;;;;;;;;;4942711;29;20185;-77
2022/05/14 02:55:57;;;;;;;2.60;1.73;;;;;;;;;;4947267;29;20268;-78
2022/05/14 03:01:08;;;;;;;2.97;1.80;;;;;;;;;;4946294;29;20587;-77
2022/05/14 03:03:34;;;;;;;2.38;2.17;;;;;;;;;;4947750;29;20461;-77
2022/05/14 03:06:01;;;;;;;2.30;2.08;;;;;;;;;;4947387;29;20565;-77
2022/05/14 03:08:27;;;;;;;2.83;2.08;;;;;;;;;;4930263;29;20668;-77
2022/05/14 03:10:53;;;;;;;2.35;1.85;;;;;;;;;;4929808;29;20244;-77
2022/05/14 03:13:19;;;;;;;4.82;1.30;;;;;;;;;;4946583;29;20196;-77
2022/05/14 03:15:45;;;;;;;3.35;2.10;;;;;;;;;;4943647;29;20242;-77
2022/05/14 03:18:11;;;;;;;1.85;1.48;;;;;;;;;;4930367;29;20309;-77
2022/05/14 03:20:37;;;;;;;4.50;2.20;;;;;;;;;;4941906;29;20647;-78
2022/05/14 03:23:04;;;;;;;3.83;1.83;;;;;;;;;;4930263;29;20441;-77
2022/05/14 03:25:31;;;;;;;2.00;1.80;;;;;;;;;;4945428;29;20196;-77
2022/05/14 03:27:57;;;;;;;2.00;1.83;;;;;;;;;;4929613;29;20177;-77
2022/05/14 03:30:23;;;;;;;3.08;1.20;;;;;;;;;;4947023;29;20189;-77
2022/05/14 03:32:49;;;;;;;2.17;1.40;;;;;;;;;;4947018;29;20197;-78
2022/05/14 03:35:15;;;;;;;2.05;1.85;;;;;;;;;;4946407;29;20472;-78
2022/05/14 03:37:42;;;;;;;3.90;1.90;;;;;;;;;;4946163;29;20277;-78
2022/05/14 03:40:09;;;;;;;1.98;1.75;;;;;;;;;;4946572;29;20209;-77
2022/05/14 03:42:36;;;;;;;3.95;1.90;;;;;;;;;;4947436;29;20192;-78
2022/05/14 03:45:02;;;;;;;1.63;1.52;;;;;;;;;;4946156;29;20186;-78
2022/05/14 03:47:29;;;;;;;1.80;1.70;;;;;;;;;;4946124;29;20193;-77
2022/05/14 03:49:55;;;;;;;2.20;1.85;;;;;;;;;;4946406;29;20192;-77
2022/05/14 03:52:21;;;;;;;5.80;2.20;;;;;;;;;;4946159;29;20643;-78
2022/05/14 03:54:47;;;;;;;3.05;1.90;;;;;;;;;;4947527;29;20212;-77
2022/05/14 03:57:13;;;;;;;4.80;3.17;;;;;;;;;;4945286;29;20197;-77
2022/05/14 03:59:39;;;;;;;2.60;2.20;;;;;;;;;;4929167;29;20469;-77
2022/05/14 04:02:06;;;;;;;3.15;1.60;;;;;;;;;;4929361;29;20193;-77
2022/05/14 04:04:32;;;;;;;2.10;1.90;;;;;;;;;;4929175;29;20732;-78
2022/05/14 04:06:59;;;;;;;3.08;1.75;;;;;;;;;;4945656;29;20184;-77
2022/05/14 04:09:25;;;;;;;2.40;2.00;;;;;;;;;;4946686;29;20199;-78
2022/05/14 04:11:52;;;;;;;2.83;1.65;;;;;;;;;;4946133;29;20197;-78
2022/05/14 04:14:18;;;;;;;2.13;1.70;;;;;;;;;;4927549;29;20210;-78
2022/05/14 04:16:44;;;;;;;2.53;2.03;;;;;;;;;;4928955;29;20216;-77
2022/05/14 04:19:11;;;;;;;6.05;1.90;;;;;;;;;;4931177;29;20470;-77
2022/05/14 04:21:38;;;;;;;2.17;1.73;;;;;;;;;;4927659;29;20445;-77
2022/05/14 04:24:04;;;;;;;2.75;2.10;;;;;;;;;;4928861;29;20186;-78
2022/05/14 04:26:30;;;;;;;1.90;1.80;;;;;;;;;;4913756;29;20190;-77
2022/05/14 04:28:56;;;;;;;1.70;1.60;;;;;;;;;;4925960;29;20219;-77
2022/05/14 04:31:22;;;;;;;1.58;1.48;;;;;;;;;;4942743;29;20474;-77
2022/05/14 04:33:49;;;;;;;2.40;1.75;;;;;;;;;;4930911;29;20185;-77
2022/05/14 04:36:15;;;;;;;3.05;1.55;;;;;;;;;;4930945;29;20706;-77
2022/05/14 04:38:41;;;;;;;4.40;1.95;;;;;;;;;;4930474;29;20190;-77
2022/05/14 04:41:07;;;;;;;2.43;2.20;;;;;;;;;;4929271;29;20191;-77
2022/05/14 04:43:33;;;;;;;2.13;1.70;;;;;;;;;;4927492;29;20438;-77
2022/05/14 04:46:00;;;;;;;3.22;1.70;;;;;;;;;;4930715;29;20256;-77
2022/05/14 04:48:26;;;;;;;4.60;2.50;;;;;;;;;;4926990;29;20182;-77
2022/05/14 04:50:54;;;;;;;2.00;1.90;;;;;;;;;;4921708;29;20197;-77
2022/05/14 04:53:20;;;;;;;1.70;1.50;;;;;;;;;;4913717;29;20182;-77
2022/05/14 04:55:47;;;;;;;2.40;2.10;;;;;;;;;;4926294;29;20210;-77
2022/05/14 04:58:13;;;;;;;1.83;1.70;;;;;;;;;;4909868;29;20323;-77
2022/05/14 05:00:41;;;;;;;1.90;1.77;;;;;;;;;;4914624;29;20185;-77
2022/05/14 05:03:16;;;;;;;2.63;2.28;;;;;;;;;;4929985;29;20249;-77
2022/05/14 05:05:42;;;;;;;3.10;2.30;;;;;;;;;;4930494;29;20520;-77
2022/05/14 05:08:09;;;;;;;2.65;2.08;;;;;;;;;;4930263;29;20188;-77
2022/05/14 05:10:36;;;;;;;3.38;1.90;;;;;;;;;;4927032;29;20211;-77
2022/05/14 05:13:02;;;;;;;4.20;2.00;;;;;;;;;;4929579;29;20189;-77
2022/05/14 05:15:28;;;;;;;4.30;1.88;;;;;;;;;;4926393;29;20269;-77
2022/05/14 05:17:55;;;;;;;3.00;1.70;;;;;;;;;;4911117;29;20186;-77
2022/05/14 05:20:21;;;;;;;3.67;1.98;;;;;;;;;;4925947;29;20221;-77
2022/05/14 05:22:48;;;;;;;3.17;2.28;;;;;;;;;;4921593;29;20738;-77
2022/05/14 05:25:14;;;;;;;2.58;1.85;;;;;;;;;;4926015;29;20189;-77
2022/05/14 05:27:40;;;;;;;2.03;1.92;;;;;;;;;;4926886;29;20189;-77
2022/05/14 05:30:07;;;;;;;2.10;1.80;;;;;;;;;;4905657;29;20218;-77
2022/05/14 05:32:34;;;;;;;3.03;1.73;;;;;;;;;;4920530;29;20185;-77
2022/05/14 05:34:59;;;;;;;2.65;1.80;;;;;;;;;;4925592;29;20202;-77
2022/05/14 05:37:25;;;;;;;2.42;2.05;;;;;;;;;;4909090;29;20301;-77
2022/05/14 05:39:52;;;;;;;3.80;2.10;;;;;;;;;;4922767;29;20178;-77
2022/05/14 05:42:18;;;;;;;3.30;2.13;;;;;;;;;;4925475;29;20189;-77
2022/05/14 05:44:44;;;;;;;4.10;2.85;;;;;;;;;;4925517;29;20230;-77
2022/05/14 05:47:10;;;;;;;4.45;2.50;;;;;;;;;;4924897;29;20262;-77
2022/05/14 05:49:38;;;;;;;5.10;2.42;;;;;;;;;;4925718;29;20294;-78
2022/05/14 05:52:04;;;;;;;3.20;2.50;;;;;;;;;;4926040;29;20253;-78
2022/05/14 05:57:15;;;;;;;5.68;2.92;;;;;;;;;;4924244;29;20218;-78
2022/05/14 05:59:41;;;;;;;2.83;2.58;;;;;;;;;;4923636;29;20620;-78
2022/05/14 06:02:08;;;;;;;6.43;2.90;;;;;;;;;;4909153;29;20245;-77
2022/05/14 06:04:34;;;;;;;5.20;3.50;;;;;;;;;;4908368;29;20558;-78
2022/05/14 06:07:00;;;;;;;3.65;3.30;;;;;;;;;;4926349;29;20179;-78
2022/05/14 06:09:29;;;;;;;4.07;2.60;;;;;;;;;;4929116;29;20178;-78
2022/05/14 06:11:56;;;;;;;3.35;2.50;;;;;;;;;;4912364;29;20190;-78
2022/05/14 06:14:22;;;;;;;6.18;3.42;;;;;;;;;;4927379;29;20205;-78
2022/05/14 06:16:48;;;;;;;3.80;2.95;;;;;;;;;;4912077;29;20276;-78
2022/05/14 06:19:14;;;;;;;4.75;3.05;;;;;;;;;;4924125;29;20229;-78
2022/05/14 06:21:41;;;;;;;4.20;3.10;;;;;;;;;;4928839;29;20194;-79
2022/05/14 06:24:07;;;;;;;4.00;3.22;;;;;;;;;;4945661;29;20189;-78
2022/05/14 06:26:33;;;;;;;5.50;3.45;;;;;;;;;;4923748;29;20568;-79
2022/05/14 06:28:59;;;;;;;3.80;2.47;;;;;;;;;;4946641;29;20194;-78
2022/05/14 06:31:26;;;;;;;4.53;2.75;;;;;;;;;;4933237;29;20443;-79
2022/05/14 06:33:52;;;;;;;7.93;3.33;;;;;;;;;;4943999;29;20643;-79
2022/05/14 06:36:18;;;;;;;4.90;2.95;;;;;;;;;;4925201;29;20572;-78
2022/05/14 06:38:44;;;;;;;8.07;3.75;;;;;;;;;;4947842;29;20220;-79
2022/05/14 06:41:12;;;;;;;4.40;2.87;;;;;;;;;;4947720;29;20186;-79
2022/05/14 06:43:38;;;;;;;4.15;2.88;;;;;;;;;;4947374;29;20529;-79
2022/05/14 06:46:04;;;;;;;5.32;3.30;;;;;;;;;;4947569;29;20189;-79
2022/05/14 06:48:31;;;;;;;9.73;4.20;;;;;;;;;;4939502;29;20215;-79
2022/05/14 06:50:59;;;;;;;4.10;3.40;;;;;;;;;;4944126;29;20192;-77
2022/05/14 06:53:25;;;;;;;4.88;2.75;;;;;;;;;;4947570;29;20191;-77
2022/05/14 06:55:53;;;;;;;6.70;2.38;;;;;;;;;;4930502;29;20205;-78
2022/05/14 06:58:22;;;;;;;3.00;2.35;;;;;;;;;;4930795;29;20195;-77
2022/05/14 07:00:48;;;;;;;5.03;2.97;;;;;;;;;;4948431;29;20181;-77
2022/05/14 07:08:44;;;;;;;3.92;1.90;;;;;;;;;;4946704;29;20261;-77
2022/05/14 07:11:10;;;;;;;3.75;2.40;;;;;;;;;;4947752;29;20177;-78
2022/05/14 07:13:36;;;;;;;4.53;2.80;;;;;;;;;;4947100;29;20197;-78
2022/05/14 07:16:02;;;;;;;8.73;1.75;;;;;;;;;;4929515;29;20215;-77
2022/05/14 07:18:28;;;;;;;3.38;1.48;;;;;;;;;;4945993;29;20268;-78
2022/05/14 07:20:55;;;;;;;3.20;1.47;;;;;;;;;;4945699;29;20196;-78
2022/05/14 07:23:21;;;;;;;6.05;1.95;;;;;;;;;;4945556;29;20440;-78
2022/05/14 07:25:47;;;;;;;3.55;2.03;;;;;;;;;;4946954;29;20266;-77
2022/05/14 07:28:13;;;;;;;5.53;2.60;;;;;;;;;;4929055;29;20552;-78
2022/05/14 07:30:39;;;;;;;3.45;2.22;;;;;;;;;;4945606;29;20252;-78
2022/05/14 07:33:05;;;;;;;7.07;2.35;;;;;;;;;;4947000;29;20265;-77
2022/05/14 07:35:31;;;;;;;8.65;2.30;;;;;;;;;;4944485;29;20685;-78
2022/05/14 07:37:58;;;;;;;3.85;2.40;;;;;;;;;;4945150;29;20195;-79
2022/05/14 07:40:27;;;;;;;2.67;2.20;;;;;;;;;;4946248;29;20188;-79
2022/05/14 07:42:59;;;;;;;4.78;2.72;;;;;;;;;;4936018;29;20185;-79
2022/05/14 07:45:32;;;;;;;3.78;2.55;;;;;;;;;;4945279;29;20192;-79
2022/05/14 07:47:58;;;;;;;4.68;2.50;;;;;;;;;;4925092;29;20309;-78
2022/05/14 07:50:24;;;;;;;6.72;2.50;;;;;;;;;;4936107;29;20193;-79
2022/05/14 07:52:51;;;;;;;5.55;3.03;;;;;;;;;;4946190;29;20188;-78
2022/05/14 07:55:17;;;;;;;3.72;2.15;;;;;;;;;;4929472;29;20244;-78
2022/05/14 07:57:43;;;;;;;6.47;2.75;;;;;;;;;;4947259;29;20218;-80
2022/05/14 08:00:10;;;;;;;2.50;2.00;;;;;;;;;;4946454;29;20180;-79
2022/05/14 08:02:36;;;;;;;5.45;2.50;;;;;;;;;;4946438;29;20442;-77
2022/05/14 08:05:03;;;;;;;5.55;2.30;;;;;;;;;;4945303;29;20192;-78
2022/05/14 08:07:29;;;;;;;4.03;2.53;;;;;;;;;;4946410;29;20185;-78
2022/05/14 08:09:55;;;;;;;5.70;3.38;;;;;;;;;;4946496;29;20698;-79
2022/05/14 08:12:21;;;;;;;5.40;2.50;;;;;;;;;;4940082;29;20188;-78
2022/05/14 08:14:47;;;;;;;6.95;2.70;;;;;;;;;;4946246;29;20468;-78
2022/05/14 08:17:13;;;;;;;9.02;2.70;;;;;;;;;;4945923;29;20185;-78
2022/05/14 08:19:39;;;;;;;6.80;3.00;;;;;;;;;;4945464;29;20225;-79
2022/05/14 08:24:52;;;;;;;2.70;2.30;;;;;;;;;;4943245;29;20436;-78
2022/05/14 08:27:18;;;;;;;3.60;2.50;;;;;;;;;;4945728;29;20216;-80
2022/05/14 08:29:47;;;;;;;3.85;2.53;;;;;;;;;;4945283;29;20259;-80
2022/05/14 08:32:13;;;;;;;7.95;2.30;;;;;;;;;;4943311;29;20187;-80
2022/05/14 08:34:39;;;;;;;4.85;2.80;;;;;;;;;;4927829;29;20213;-79
2022/05/14 08:37:06;;;;;;;7.00;2.72;;;;;;;;;;4945363;29;20236;-79
2022/05/14 08:39:32;;;;;;;4.22;2.05;;;;;;;;;;4944914;29;20287;-79
2022/05/14 08:42:00;;;;;;;3.70;2.25;;;;;;;;;;4945852;29;20188;-80
2022/05/14 08:44:33;;;;;;;8.82;2.25;;;;;;;;;;4944261;29;20714;-80
2022/05/14 08:47:03;;;;;;;5.97;2.95;;;;;;;;;;4945093;29;20275;-81
2022/05/14 08:49:37;;;;;;;7.18;2.20;;;;;;;;;;4945222;29;20729;-79
2022/05/14 08:52:06;;;;;;;2.45;1.63;;;;;;;;;;4928470;29;20185;-79
2022/05/14 08:54:33;;;;;;;6.38;2.15;;;;;;;;;;4946531;29;20204;-80
2022/05/14 08:57:13;;;;;;;4.28;2.10;;;;;;;;;;4945302;29;20193;-80
2022/05/14 08:59:38;;;;;;;7.07;3.10;;;;;;;;;;4944982;29;20348;-80
2022/05/14 09:02:16;;;;;;;3.30;1.70;;;;;;;;;;4927505;29;20204;-81
2022/05/14 09:04:42;;;;;;;3.35;1.80;;;;;;;;;;4944860;29;20441;-79
2022/05/14 09:07:08;;;;;;;4.95;1.60;;;;;;;;;;4945591;29;20200;-79
2022/05/14 09:09:35;;;;;;;6.57;1.98;;;;;;;;;;4945987;29;20721;-80
2022/05/14 09:12:02;;;;;;;2.22;2.00;;;;;;;;;;4928454;29;20209;-80
2022/05/14 09:14:31;;;;;;;4.00;1.70;;;;;;;;;;4927886;29;20646;-80
2022/05/14 09:17:11;;;;;;;2.58;1.60;;;;;;;;;;4940920;29;20188;-80
2022/05/14 09:19:38;;;;;;;4.35;2.13;;;;;;;;;;4914306;29;20613;-80
2022/05/14 09:22:13;;;;;;;7.57;2.95;;;;;;;;;;4945370;29;20197;-79
2022/05/14 09:24:43;;;;;;;3.75;1.60;;;;;;;;;;4944828;29;20183;-79
2022/05/14 09:27:14;;;;;;;4.20;2.17;;;;;;;;;;4944912;29;20577;-80
2022/05/14 09:29:42;;;;;;;6.30;3.00;;;;;;;;;;4944538;29;20272;-80
2022/05/14 09:32:17;;;;;;;2.15;1.92;;;;;;;;;;4945208;29;20197;-81
2022/05/14 09:34:43;;;;;;;4.72;1.73;;;;;;;;;;4944720;29;20224;-80
2022/05/14 09:37:16;;;;;;;3.63;2.27;;;;;;;;;;4945349;29;20202;-79
2022/05/14 09:39:42;;;;;;;8.90;2.42;;;;;;;;;;4944762;29;20682;-80
2022/05/14 09:42:23;;;;;;;5.90;2.42;;;;;;;;;;4927662;29;20186;-80
2022/05/14 09:44:51;;;;;;;5.70;1.70;;;;;;;;;;4948172;29;20580;-80
2022/05/14 09:47:31;;;;;;;2.50;1.60;;;;;;;;;;4931609;29;20603;-78
2022/05/14 09:49:59;;;;;;;2.30;1.80;;;;;;;;;;4936006;29;20455;-80
2022/05/14 09:52:28;;;;;;;3.10;1.40;;;;;;;;;;4933763;29;20439;-80
2022/05/14 09:54:54;;;;;;;1.80;1.30;;;;;;;;;;4928514;29;20740;-80
2022/05/14 09:57:23;;;;;;;1.90;1.37;;;;;;;;;;4948577;29;20484;-80
2022/05/14 10:00:07;;;;;;;1.60;1.50;;;;;;;;;;4930617;29;20505;-80
2022/05/14 10:02:40;;;;;;;3.07;1.10;;;;;;;;;;4948513;29;20437;-79
2022/05/14 10:05:06;;;;;;;4.20;1.27;;;;;;;;;;4931202;29;20910;-80
2022/05/14 10:07:42;;;;;;;10.00;2.60;;;;;;;;;;4948441;29;20451;-81
2022/05/14 10:10:13;;;;;;;4.43;1.87;;;;;;;;;;4947699;29;20432;-80
2022/05/14 10:12:45;;;;;;;2.60;2.17;;;;;;;;;;4946170;29;20509;-80
2022/05/14 10:15:15;;;;;;;6.18;2.22;;;;;;;;;;4947048;29;20984;-80
2022/05/14 10:17:46;;;;;;;2.97;1.52;;;;;;;;;;4943765;29;20196;-80
2022/05/14 10:20:31;;;;;;;2.72;2.25;;;;;;;;;;4947325;29;20418;-81
2022/05/14 10:28:55;;;;;;;3.67;2.10;;;;;;;;;;4943715;29;20475;-79
2022/05/14 10:31:21;;;;;;;2.87;1.87;;;;;;;;;;4930371;29;20422;-79
2022/05/14 10:33:47;;;;;;;1.87;1.60;;;;;;;;;;4946818;29;20421;-80
2022/05/14 10:36:20;;;;;;;9.00;4.07;;;;;;;;;;4930164;29;20827;-80
2022/05/14 10:38:47;;;;;;;2.70;2.10;;;;;;;;;;4948034;29;20447;-80
2022/05/14 10:41:20;;;;;;;5.37;2.50;;;;;;;;;;4929991;29;20441;-80
2022/05/14 10:43:53;;;;;;;2.77;1.67;;;;;;;;;;4947425;29;20479;-82
2022/05/14 10:46:21;;;;;;;2.63;2.43;;;;;;;;;;4947673;29;20600;-79
2022/05/14 10:48:57;;;;;;;4.37;1.90;;;;;;;;;;4948807;29;20421;-80
2022/05/14 10:51:25;;;;;;;2.20;1.80;;;;;;;;;;4946812;29;20726;-81
2022/05/14 10:53:52;;;;;;;4.13;3.57;;;;;;;;;;4947192;29;20844;-80
2022/05/14 10:56:27;;;;;;;4.77;2.20;;;;;;;;;;4947601;29;20479;-79
2022/05/14 10:58:57;;;;;;;2.47;2.27;;;;;;;;;;4935239;29;20503;-79
2022/05/14 11:01:35;;;;;;;5.97;2.30;;;;;;;;;;4945692;29;20445;-80
2022/05/14 11:04:08;;;;;;;3.97;2.00;;;;;;;;;;4926609;29;20474;-83
2022/05/14 11:06:47;;;;;;;2.60;1.60;;;;;;;;;;4943920;29;20429;-80
2022/05/14 11:09:20;;;;;;;3.00;1.95;;;;;;;;;;4945362;29;20547;-83
2022/05/14 11:11:55;;;;;;;4.65;1.92;;;;;;;;;;4945736;29;20181;-80
2022/05/14 11:14:21;;;;;;;6.28;1.90;;;;;;;;;;4945783;29;20208;-80
2022/05/14 11:16:48;;;;;;;2.93;1.60;;;;;;;;;;4946914;29;20199;-81
2022/05/14 11:19:27;;;;;;;3.30;2.27;;;;;;;;;;4929711;29;20476;-84
2022/05/14 11:21:55;;;;;;;2.78;2.10;;;;;;;;;;4943729;29;20441;-80
2022/05/14 11:24:29;;;;;;;4.10;1.80;;;;;;;;;;4926278;29;20200;-80
2022/05/14 11:26:56;;;;;;;5.00;2.10;;;;;;;;;;4946544;29;20552;-80
2022/05/14 11:29:26;;;;;;;5.13;2.30;;;;;;;;;;4946753;29;20875;-82
2022/05/14 11:32:04;;;;;;;4.40;1.93;;;;;;;;;;4929787;29;20445;-80
2022/05/14 11:34:30;;;;;;;5.23;1.90;;;;;;;;;;4915282;29;20506;-80
2022/05/14 11:36:58;;;;;;;4.32;1.65;;;;;;;;;;4947097;29;20619;-80
2022/05/14 11:39:28;;;;;;;3.17;2.00;;;;;;;;;;4947122;29;20180;-79
2022/05/14 11:41:55;;;;;;;3.77;2.03;;;;;;;;;;4946659;29;20823;-81
2022/05/14 11:44:33;;;;;;;3.00;1.80;;;;;;;;;;4929525;29;20477;-79
2022/05/14 11:46:59;;;;;;;2.73;2.00;;;;;;;;;;4946629;29;20606;-79
2022/05/14 11:49:25;;;;;;;5.83;2.20;;;;;;;;;;4946277;29;20464;-80
2022/05/14 11:52:09;;;;;;;4.40;2.03;;;;;;;;;;4929378;29;20436;-80
2022/05/14 11:54:36;;;;;;;3.47;1.70;;;;;;;;;;4946540;29;20483;-79
2022/05/14 11:57:02;;;;;;;3.20;1.60;;;;;;;;;;4945706;29;20800;-80
2022/05/14 11:59:34;;;;;;;3.03;1.93;;;;;;;;;;4945500;29;20449;-79
2022/05/14 12:02:01;;;;;;;3.67;1.57;;;;;;;;;;4927667;29;20463;-80
2022/05/14 12:04:33;;;;;;;7.03;2.37;;;;;;;;;;4940919;29;20444;-81
2022/05/14 12:07:22;;;;;;;3.90;3.23;;;;;;;;;;4945909;29;20439;-80
2022/05/14 12:10:04;;;;;;;2.50;2.30;;;;;;;;;;4946910;29;20453;-80
2022/05/14 12:12:36;;;;;;;5.40;1.90;;;;;;;;;;4926125;29;20407;-81
2022/05/14 12:15:10;;;;;;;3.00;2.00;;;;;;;;;;4917905;29;20477;-82
2022/05/14 12:17:36;;;;;;;2.30;1.77;;;;;;;;;;4940135;29;20411;-81
2022/05/14 12:20:03;;;;;;;2.70;1.80;;;;;;;;;;4945411;29;20455;-81
2022/05/14 12:22:30;;;;;;;2.83;2.10;;;;;;;;;;4945827;29;20438;-83
2022/05/14 12:25:07;;;;;;;3.47;1.70;;;;;;;;;;4947276;29;20484;-81
2022/05/14 12:27:34;;;;;;;3.37;1.97;;;;;;;;;;4946824;29;20417;-81
2022/05/14 12:30:02;;;;;;;7.83;2.37;;;;;;;;;;4945390;29;20444;-79
2022/05/14 12:35:22;;;;;;;2.73;2.53;;;;;;;;;;4944394;29;20477;-78
2022/05/14 12:37:49;;;;;;;6.60;2.40;;;;;;;;;;4935657;29;20772;-78
2022/05/14 12:40:41;;;;;;;2.13;1.60;;;;;;;;;;4945200;29;20417;-78
2022/05/14 12:43:08;;;;;;;3.63;2.27;;;;;;;;;;4938776;29;20443;-80
2022/05/14 12:45:35;;;;;;;1.90;1.80;;;;;;;;;;4945827;29;20417;-80
2022/05/14 12:48:04;;;;;;;6.27;2.63;;;;;;;;;;4945476;29;20500;-79
2022/05/14 12:50:32;;;;;;;5.40;2.10;;;;;;;;;;4924566;29;20471;-79
2022/05/14 12:53:00;;;;;;;4.30;2.17;;;;;;;;;;4923308;29;20433;-78
2022/05/14 12:55:27;;;;;;;3.57;1.80;;;;;;;;;;4927775;29;20459;-79
2022/05/14 12:57:53;;;;;;;3.50;2.07;;;;;;;;;;4940205;29;20439;-76
2022/05/14 13:00:21;;;;;;;5.80;2.50;;;;;;;;;;4945045;29;20476;-78
2022/05/14 13:03:05;;;;;;;5.33;2.07;;;;;;;;;;4928455;29;20467;-77
2022/05/14 13:05:34;;;;;;;2.00;1.80;;;;;;;;;;4927289;29;20441;-78
2022/05/14 13:08:04;;;;;;;2.10;1.80;;;;;;;;;;4926741;29;20440;-79
2022/05/14 13:10:31;;;;;;;3.37;2.03;;;;;;;;;;4928384;29;20448;-78
2022/05/14 13:12:58;;;;;;;3.83;2.07;;;;;;;;;;4945902;29;20722;-78
2022/05/14 13:15:55;;;;;;;3.47;3.03;;;;;;;;;;4946294;29;20959;-79
2022/05/14 13:18:23;;;;;;;4.77;2.50;;;;;;;;;;4942847;29;20997;-78
2022/05/14 13:21:03;;;;;;;3.57;2.70;;;;;;;;;;4934725;29;20450;-78
2022/05/14 13:23:30;;;;;;;2.30;2.07;;;;;;;;;;4930229;29;20448;-79
2022/05/14 13:25:58;;;;;;;2.27;2.00;;;;;;;;;;4929404;29;20444;-78
2022/05/14 13:28:26;;;;;;;6.43;2.60;;;;;;;;;;4926625;29;20497;-78
2022/05/14 13:30:52;;;;;;;3.73;2.67;;;;;;;;;;4925424;29;20434;-79
2022/05/14 13:33:32;;;;;;;4.03;2.23;;;;;;;;;;4929622;29;20540;-79
2022/05/14 13:38:45;;;;;;;4.50;2.40;;;;;;;;;;4929562;29;20438;-78
2022/05/14 13:41:22;;;;;;;2.27;2.07;;;;;;;;;;4930020;29;20451;-79
2022/05/14 13:43:50;;;;;;;4.23;2.60;;;;;;;;;;4914700;29;20504;-79
2022/05/14 13:46:20;;;;;;;5.53;2.20;;;;;;;;;;4906323;29;20501;-77
2022/05/14 13:48:48;;;;;;;3.37;2.30;;;;;;;;;;4913492;29;20432;-79
2022/05/14 13:51:17;;;;;;;2.37;1.77;;;;;;;;;;4898606;29;20520;-79
2022/05/14 13:53:44;;;;;;;4.47;2.20;;;;;;;;;;4912362;29;20431;-78
2022/05/14 13:56:12;;;;;;;2.90;1.80;;;;;;;;;;4929939;29;20498;-79
2022/05/14 13:58:41;;;;;;;3.60;1.97;;;;;;;;;;4910168;29;20499;-79
2022/05/14 14:01:23;;;;;;;2.67;1.90;;;;;;;;;;4911577;29;20436;-79
2022/05/14 14:03:59;;;;;;;2.80;2.30;;;;;;;;;;4930227;29;20410;-77
2022/05/14 14:06:31;;;;;;;5.13;2.27;;;;;;;;;;4931218;29;20461;-79
2022/05/14 14:08:57;;;;;;;4.27;2.57;;;;;;;;;;4926552;29;20941;-79
2022/05/14 14:11:23;;;;;;;3.07;1.97;;;;;;;;;;4926973;29;20427;-79
2022/05/14 14:13:49;;;;;;;8.53;2.30;;;;;;;;;;4910787;29;20933;-78
2022/05/14 14:16:15;;;;;;;6.40;2.20;;;;;;;;;;4926068;29;20479;-79
2022/05/14 14:18:41;;;;;;;5.37;2.60;;;;;;;;;;4935833;29;20524;-79
2022/05/14 14:21:08;;;;;;;2.07;1.90;;;;;;;;;;4944623;29;20444;-80
2022/05/14 14:23:36;;;;;;;4.87;2.33;;;;;;;;;;4944084;29;20481;-80
2022/05/14 14:26:02;;;;;;;4.03;2.50;;;;;;;;;;4927065;29;20737;-80
2022/05/14 14:28:29;;;;;;;4.80;3.30;;;;;;;;;;4944459;29;20451;-80
2022/05/14 14:30:55;;;;;;;5.07;2.40;;;;;;;;;;4949111;29;20462;-78
2022/05/14 14:33:21;;;;;;;2.80;1.80;;;;;;;;;;4948356;29;20427;-80
2022/05/14 14:35:47;;;;;;;3.97;2.13;;;;;;;;;;4944633;29;20473;-79
2022/05/14 14:38:14;;;;;;;5.20;3.20;;;;;;;;;;4947813;29;20432;-80
2022/05/14 14:40:41;;;;;;;3.70;2.17;;;;;;;;;;4930757;29;20451;-80
2022/05/14 14:43:07;;;;;;;3.73;2.80;;;;;;;;;;4930550;29;20428;-79
2022/05/14 14:45:34;;;;;;;7.50;2.93;;;;;;;;;;4928104;29;20451;-79
2022/05/14 14:48:00;;;;;;;4.30;1.80;;;;;;;;;;4931540;29;20418;-80
2022/05/14 14:50:26;;;;;;;4.83;2.80;;;;;;;;;;4922878;29;20447;-80
2022/05/14 14:52:53;;;;;;;3.47;2.63;;;;;;;;;;4944221;29;20437;-79
2022/05/14 14:55:19;;;;;;;4.27;2.70;;;;;;;;;;4947611;29;20527;-79
2022/05/14 14:57:46;;;;;;;3.50;2.07;;;;;;;;;;4927594;29;20433;-79
2022/05/14 15:00:14;;;;;;;3.10;2.00;;;;;;;;;;4940704;29;20432;-78
2022/05/14 15:02:47;;;;;;;4.07;2.27;;;;;;;;;;4941141;29;20475;-78
2022/05/14 15:05:18;;;;;;;3.83;2.07;;;;;;;;;;4946398;29;20458;-80
2022/05/14 15:07:44;;;;;;;3.00;2.47;;;;;;;;;;4947160;29;20494;-78
2022/05/14 15:10:11;;;;;;;2.87;2.60;;;;;;;;;;4930032;29;20410;-79
2022/05/14 15:12:38;;;;;;;2.73;2.10;;;;;;;;;;4948071;29;20419;-80
2022/05/14 15:15:04;;;;;;;3.23;2.90;;;;;;;;;;4929456;29;20478;-79
2022/05/14 15:17:31;;;;;;;3.37;1.80;;;;;;;;;;4947324;29;20460;-79
2022/05/14 15:19:57;;;;;;;6.73;2.70;;;;;;;;;;4946565;29;20444;-78